Carrington, North Dakota
Current Conditions -  °F | °C
As of 11:35 AM on Thursday 30 Oct 2014 (Local Time) from K46D Reporting Station
Overcast Overcast  
Wind Chill: -5°   Ceiling: 1300
Heat Index:   Visibility: 10mi
Dew Point:   Wind: 18mph
Humidity: 100%   Direction: 360°N
Pressure: 30.33"   Gusts: 23mph
Location:  47.45°N, 99.13°W
Report Text: K46D 301635Z AUTO 36016G20KT 10SM FEW009 OVC013 01/01 A3033 RMK AO2
Loading
Personal Weather Stations






























Interactive Weather Map
Tropical Storm Tracking
New forecast layout! Learn more

10-Day Weather Forecast

Advertisements
Track Severe Weather on mobile